createdAt,value
2022-11-14T00:00:48.356Z,101900.52
2022-11-14T00:03:33.802Z,101905.37
2022-11-14T00:06:19.379Z,101909.59
2022-11-14T00:09:04.800Z,101914.80
2022-11-14T00:11:50.108Z,101916.23
2022-11-14T00:14:35.568Z,101914.41
2022-11-14T00:17:21.465Z,101913.04
2022-11-14T00:20:09.044Z,101912.13
2022-11-14T00:22:54.614Z,101913.86
2022-11-14T00:25:40.430Z,101908.25
2022-11-14T00:28:25.695Z,101901.48
2022-11-14T00:31:11.936Z,101897.49
2022-11-14T00:33:57.832Z,101896.36
2022-11-14T00:36:43.369Z,101894.61
2022-11-14T00:39:29.151Z,101892.65
2022-11-14T00:42:14.455Z,101893.28
2022-11-14T00:45:00.273Z,101892.75
2022-11-14T00:47:45.650Z,101888.97
2022-11-14T00:50:31.174Z,101887.00
2022-11-14T00:53:16.671Z,101881.67
2022-11-14T00:56:02.720Z,101879.86
2022-11-14T00:58:48.392Z,101878.69
2022-11-14T01:01:33.850Z,101880.91
2022-11-14T01:04:19.730Z,101881.06
2022-11-14T01:07:05.726Z,101880.83
2022-11-14T01:09:51.166Z,101879.75
2022-11-14T01:12:36.655Z,101879.92
2022-11-14T01:15:22.165Z,101882.05
2022-11-14T01:18:08.051Z,101883.41
2022-11-14T01:20:54.275Z,101886.05
2022-11-14T01:23:40.191Z,101883.30
2022-11-14T01:26:25.786Z,101881.70
2022-11-14T01:29:11.184Z,101877.48
2022-11-14T01:31:57.218Z,101874.58
2022-11-14T01:34:42.989Z,101875.20
2022-11-14T01:37:28.695Z,101873.97
2022-11-14T01:40:14.015Z,101875.27
2022-11-14T01:43:11.683Z,101875.92
2022-11-14T01:46:07.954Z,101879.36
2022-11-14T01:48:59.593Z,101875.77
2022-11-14T01:52:07.454Z,101878.67
2022-11-14T01:54:59.057Z,101873.81
2022-11-14T01:57:48.309Z,101872.80
2022-11-14T02:00:34.111Z,101873.78
2022-11-14T02:03:20.557Z,101870.65
2022-11-14T02:06:07.641Z,101869.38
2022-11-14T02:08:54.958Z,101871.86
2022-11-14T02:11:46.046Z,101872.17
2022-11-14T02:14:33.400Z,101867.62
2022-11-14T02:17:29.416Z,101864.16
2022-11-14T02:20:19.652Z,101859.65
2022-11-14T02:23:05.137Z,101852.95
2022-11-14T02:25:50.917Z,101854.05
2022-11-14T02:28:37.013Z,101853.29
2022-11-14T02:31:22.570Z,101859.10
2022-11-14T02:34:08.481Z,101860.71
2022-11-14T02:36:54.408Z,101861.39
2022-11-14T02:39:40.177Z,101861.59
2022-11-14T02:42:26.153Z,101863.10
2022-11-14T02:45:12.594Z,101864.56
2022-11-14T02:47:58.239Z,101864.65
2022-11-14T02:50:44.573Z,101864.45
2022-11-14T02:53:30.221Z,101864.91
2022-11-14T02:56:16.011Z,101864.66
2022-11-14T02:59:01.794Z,101868.21
2022-11-14T03:01:47.592Z,101861.02
2022-11-14T03:04:33.380Z,101859.85
2022-11-14T03:07:19.315Z,101854.23
2022-11-14T03:10:05.592Z,101856.67
2022-11-14T03:12:55.867Z,101856.76
2022-11-14T03:15:41.542Z,101856.91
2022-11-14T03:18:27.454Z,101858.94
2022-11-14T03:21:16.695Z,101859.10
2022-11-14T03:24:02.484Z,101862.59
2022-11-14T03:26:48.140Z,101862.98
2022-11-14T03:29:33.851Z,101864.39
2022-11-14T03:32:19.586Z,101869.30
2022-11-14T03:35:05.816Z,101866.54
2022-11-14T03:37:55.217Z,101865.61
2022-11-14T03:40:41.754Z,101869.66
2022-11-14T03:43:32.026Z,101867.02
2022-11-14T03:46:17.452Z,101867.49
2022-11-14T03:49:03.506Z,101868.25
2022-11-14T03:51:49.139Z,101867.54
2022-11-14T03:54:34.798Z,101863.58
2022-11-14T03:57:20.129Z,101860.15
2022-11-14T04:00:05.977Z,101855.32
2022-11-14T04:02:51.587Z,101855.66
2022-11-14T04:05:37.447Z,101856.58
2022-11-14T04:08:23.070Z,101857.00
2022-11-14T04:11:08.726Z,101857.05
2022-11-14T04:13:54.466Z,101856.48
2022-11-14T04:16:40.228Z,101863.11
2022-11-14T04:19:25.963Z,101863.15
2022-11-14T04:22:11.794Z,101860.73
2022-11-14T04:24:57.796Z,101866.17
2022-11-14T04:27:44.090Z,101864.65
2022-11-14T04:30:34.415Z,101867.45
2022-11-14T04:33:20.872Z,101864.96
2022-11-14T04:36:06.911Z,101866.66
2022-11-14T04:38:52.456Z,101869.89
2022-11-14T04:41:38.347Z,101866.73
2022-11-14T04:44:24.034Z,101868.42
2022-11-14T04:47:09.619Z,101872.79
2022-11-14T04:49:55.204Z,101871.48
2022-11-14T04:52:41.188Z,101872.04
2022-11-14T04:55:27.075Z,101872.40
2022-11-14T04:58:12.762Z,101872.83
2022-11-14T05:00:58.794Z,101874.32
2022-11-14T05:03:45.161Z,101871.70
2022-11-14T05:06:30.745Z,101868.02
2022-11-14T05:09:16.218Z,101867.75
2022-11-14T05:12:01.905Z,101868.95
2022-11-14T05:14:47.462Z,101864.44
2022-11-14T05:17:32.761Z,101866.13
2022-11-14T05:20:18.066Z,101867.73
2022-11-14T05:23:04.517Z,101871.79
2022-11-14T05:26:04.739Z,101873.23
2022-11-14T05:28:50.741Z,101877.41
2022-11-14T05:31:35.932Z,101880.45
2022-11-14T05:34:21.681Z,101882.16
2022-11-14T05:37:08.665Z,101882.29
2022-11-14T05:39:54.138Z,101877.56
2022-11-14T05:42:39.357Z,101874.04
2022-11-14T05:45:24.992Z,101872.08
2022-11-14T05:48:10.570Z,101869.01
2022-11-14T05:50:58.053Z,101871.77
2022-11-14T05:53:43.467Z,101868.44
2022-11-14T05:56:29.190Z,101876.70
2022-11-14T05:59:15.102Z,101879.48
2022-11-14T06:02:00.875Z,101880.94
2022-11-14T06:04:46.821Z,101882.97
2022-11-14T06:07:32.223Z,101888.25
2022-11-14T06:10:18.078Z,101893.48
2022-11-14T06:13:03.771Z,101898.20
2022-11-14T06:15:49.161Z,101895.56
2022-11-14T06:18:36.430Z,101894.85
2022-11-14T06:21:24.643Z,101900.66
2022-11-14T06:24:10.394Z,101904.67
2022-11-14T06:26:56.249Z,101909.89
2022-11-14T06:29:41.970Z,101918.11
2022-11-14T06:32:27.558Z,101926.06
2022-11-14T06:35:13.437Z,101929.80
2022-11-14T06:38:00.454Z,101932.89
2022-11-14T06:40:46.222Z,101933.66
2022-11-14T06:43:53.108Z,101938.82
2022-11-14T06:46:39.027Z,101942.59
2022-11-14T06:49:28.180Z,101953.73
2022-11-14T06:52:14.181Z,101956.97
2022-11-14T06:54:59.882Z,101962.71
2022-11-14T06:57:45.337Z,101965.37
2022-11-14T07:00:31.186Z,101964.86
2022-11-14T07:03:17.077Z,101964.19
2022-11-14T07:06:05.254Z,101964.87
2022-11-14T07:08:51.818Z,101962.44
2022-11-14T07:11:37.959Z,101965.48
2022-11-14T07:14:23.788Z,101971.09
2022-11-14T07:17:09.749Z,101970.30
2022-11-14T07:19:55.326Z,101969.91
2022-11-14T07:22:40.903Z,101973.27
2022-11-14T07:25:26.651Z,101976.13
2022-11-14T07:28:11.907Z,101974.74
2022-11-14T07:30:57.653Z,101973.82
2022-11-14T07:33:45.028Z,101970.03
2022-11-14T07:36:30.585Z,101973.42
2022-11-14T07:39:16.241Z,101978.30
2022-11-14T07:42:02.204Z,101974.75
2022-11-14T07:44:48.137Z,101974.21
2022-11-14T07:47:33.496Z,101973.84
2022-11-14T07:50:20.506Z,101979.05
2022-11-14T07:53:06.679Z,101988.20
2022-11-14T07:55:52.100Z,101994.26
2022-11-14T07:58:39.521Z,102001.21
2022-11-14T08:01:25.286Z,102000.22
2022-11-14T08:04:11.143Z,102004.89
2022-11-14T08:06:56.619Z,102004.88
2022-11-14T08:09:42.254Z,102004.66
2022-11-14T08:12:27.939Z,102004.92
2022-11-14T08:15:14.441Z,102005.94
2022-11-14T08:18:01.874Z,102011.39
2022-11-14T08:20:48.165Z,102011.89
2022-11-14T08:23:34.058Z,102007.55
2022-11-14T08:26:19.744Z,102004.90
2022-11-14T08:29:05.256Z,102005.64
2022-11-14T08:31:53.465Z,102009.20
2022-11-14T08:34:41.170Z,102016.89
2022-11-14T08:37:27.086Z,102032.09
2022-11-14T08:40:13.183Z,102045.71
2022-11-14T08:43:03.178Z,102059.98
2022-11-14T08:45:48.463Z,102073.32
2022-11-14T08:48:34.152Z,102071.04
2022-11-14T08:51:19.808Z,102075.84
2022-11-14T08:54:05.428Z,102076.73
2022-11-14T08:56:50.534Z,102081.84
2022-11-14T08:59:35.900Z,102083.48
2022-11-14T09:02:21.415Z,102089.23
2022-11-14T09:05:07.113Z,102098.85
2022-11-14T09:07:53.269Z,102103.39
2022-11-14T09:10:38.993Z,102109.83
2022-11-14T09:13:25.000Z,102101.80
2022-11-14T09:16:10.460Z,102089.66
2022-11-14T09:18:56.043Z,102072.38
2022-11-14T09:21:41.779Z,102076.50
2022-11-14T09:24:27.316Z,102083.73
2022-11-14T09:27:13.000Z,102070.73
2022-11-14T09:29:58.990Z,102059.38
2022-11-14T09:32:44.732Z,102055.63
2022-11-14T09:35:31.359Z,102060.80
2022-11-14T09:38:16.576Z,102071.56
2022-11-14T09:41:21.079Z,102080.94
2022-11-14T09:44:06.512Z,102075.36
2022-11-14T09:47:02.203Z,102079.18
2022-11-14T09:49:51.711Z,102068.16
2022-11-14T09:52:46.528Z,102058.00
2022-11-14T09:55:37.204Z,102061.34
2022-11-14T09:58:23.060Z,102073.96
2022-11-14T10:01:16.122Z,102079.25
2022-11-14T10:04:16.557Z,102080.19
2022-11-14T10:07:09.837Z,102076.57
2022-11-14T10:10:03.635Z,102082.05
2022-11-14T10:13:11.706Z,102115.02
2022-11-14T10:16:18.892Z,102136.91
2022-11-14T10:19:25.563Z,102144.44
2022-11-14T10:22:48.532Z,102152.66
2022-11-14T10:26:24.790Z,102134.00
2022-11-14T10:29:49.985Z,102096.94
2022-11-14T10:32:41.833Z,102088.44
2022-11-14T10:35:40.913Z,102091.03
2022-11-14T10:38:30.490Z,102096.69
2022-11-14T10:41:34.655Z,102099.38
2022-11-14T10:44:30.412Z,102102.41
2022-11-14T10:47:21.004Z,102103.33
2022-11-14T10:50:20.170Z,102097.15
2022-11-14T10:53:14.937Z,102090.02
2022-11-14T10:56:04.577Z,102082.95
2022-11-14T10:58:50.892Z,102072.35
2022-11-14T11:01:59.151Z,102063.42
2022-11-14T11:04:45.641Z,102060.54
2022-11-14T11:08:02.927Z,102062.84
2022-11-14T11:11:19.761Z,102056.27
2022-11-14T11:14:06.722Z,102059.32
2022-11-14T11:17:09.358Z,102050.46
2022-11-14T11:19:55.452Z,102038.06
2022-11-14T11:22:43.288Z,102019.92
2022-11-14T11:25:30.896Z,102005.25
2022-11-14T11:28:22.237Z,101991.38
2022-11-14T11:31:09.659Z,101982.89
2022-11-14T11:33:55.667Z,101974.30
2022-11-14T11:36:50.862Z,101969.50
2022-11-14T11:39:46.487Z,101966.93
2022-11-14T11:43:31.829Z,101964.65
2022-11-14T11:45:50.689Z,101949.95
2022-11-14T11:48:41.090Z,101943.14
2022-11-14T11:51:27.924Z,101929.92
2022-11-14T11:54:20.676Z,101925.23
2022-11-14T11:57:21.223Z,101921.81
2022-11-14T12:00:22.031Z,101924.02
2022-11-14T12:03:19.849Z,101923.40
2022-11-14T12:06:24.854Z,101925.38
2022-11-14T12:10:03.668Z,101921.67
2022-11-14T12:12:46.093Z,101919.36
2022-11-14T12:15:37.624Z,101918.28
2022-11-14T12:18:45.314Z,101921.02
2022-11-14T12:21:58.367Z,101914.21
2022-11-14T12:25:22.937Z,101916.16
2022-11-14T12:28:18.047Z,101919.80
2022-11-14T12:31:06.400Z,101919.95
2022-11-14T12:33:59.495Z,101918.36
2022-11-14T12:36:46.265Z,101926.02
2022-11-14T12:39:32.994Z,101930.25
2022-11-14T12:42:21.722Z,101926.34
2022-11-14T12:45:42.080Z,101924.84
2022-11-14T12:48:27.408Z,101927.90
2022-11-14T12:51:25.350Z,101931.58
2022-11-14T12:54:44.092Z,101934.73
2022-11-14T12:57:50.196Z,101934.52
2022-11-14T13:00:41.377Z,101929.33
2022-11-14T13:03:37.238Z,101929.12
2022-11-14T13:06:44.107Z,101926.95
2022-11-14T13:09:54.786Z,101924.87
2022-11-14T13:13:17.757Z,101913.16
2022-11-14T13:16:23.007Z,101908.37
2022-11-14T13:19:30.076Z,101912.02
2022-11-14T13:22:15.452Z,101907.14
2022-11-14T13:25:04.066Z,101903.14
2022-11-14T13:31:07.219Z,101903.50
2022-11-14T13:34:00.196Z,101901.77
2022-11-14T13:37:04.701Z,101894.52
2022-11-14T13:39:59.498Z,101893.91
2022-11-14T13:43:00.237Z,101885.62
2022-11-14T13:45:54.934Z,101881.14
2022-11-14T13:49:05.552Z,101883.03
2022-11-14T13:51:54.290Z,101887.37
2022-11-14T13:54:47.935Z,101885.50
2022-11-14T13:57:42.046Z,101884.16
2022-11-14T14:00:40.847Z,101896.90
2022-11-14T14:03:36.440Z,101899.65
2022-11-14T14:06:37.672Z,101896.80
2022-11-14T14:09:35.646Z,101895.45
2022-11-14T14:12:40.075Z,101898.38
2022-11-14T14:15:36.199Z,101900.23
2022-11-14T14:18:25.899Z,101896.39
2022-11-14T14:21:34.205Z,101897.88
2022-11-14T14:24:56.505Z,101898.27
2022-11-14T14:27:57.241Z,101902.02
2022-11-14T14:31:03.358Z,101902.46
2022-11-14T14:33:51.345Z,101904.13
2022-11-14T14:36:36.754Z,101910.42
2022-11-14T14:39:26.444Z,101905.55
2022-11-14T14:42:12.424Z,101906.99
2022-11-14T14:44:58.869Z,101905.56
2022-11-14T14:47:47.798Z,101902.59
2022-11-14T14:50:41.988Z,101898.42
2022-11-14T14:53:33.419Z,101893.64
2022-11-14T14:56:25.292Z,101895.70
2022-11-14T14:59:23.213Z,101895.32
2022-11-14T15:02:21.618Z,101894.66
2022-11-14T15:05:07.773Z,101894.34
2022-11-14T15:07:57.289Z,101896.68
2022-11-14T15:10:44.613Z,101894.55
2022-11-14T15:13:31.381Z,101889.56
2022-11-14T15:16:17.186Z,101883.31
2022-11-14T15:19:03.133Z,101881.74
2022-11-14T15:22:18.420Z,101886.25
2022-11-14T15:25:19.640Z,101883.22
2022-11-14T15:28:13.939Z,101884.64
2022-11-14T15:31:01.872Z,101883.99
2022-11-14T15:34:03.513Z,101881.20
2022-11-14T15:37:11.066Z,101879.32
2022-11-14T15:40:20.934Z,101877.89
2022-11-14T15:43:48.404Z,101875.07
2022-11-14T15:46:34.068Z,101877.17
2022-11-14T15:49:26.832Z,101876.25
2022-11-14T15:52:22.535Z,101879.46
2022-11-14T15:55:20.408Z,101882.50
2022-11-14T16:01:22.967Z,101878.92
2022-11-14T16:04:21.604Z,101881.00
2022-11-14T16:07:07.481Z,101887.34
2022-11-14T16:09:53.164Z,101888.94
2022-11-14T16:12:38.482Z,101886.48
2022-11-14T16:15:24.041Z,101889.23
2022-11-14T16:18:12.276Z,101888.56
2022-11-14T16:20:59.536Z,101887.56
2022-11-14T16:23:45.180Z,101890.85
2022-11-14T16:26:31.414Z,101888.11
2022-11-14T16:29:18.478Z,101892.05
2022-11-14T16:32:04.186Z,101889.15
2022-11-14T16:34:49.374Z,101892.71
2022-11-14T16:37:35.012Z,101896.59
2022-11-14T16:40:27.617Z,101897.24
2022-11-14T16:43:16.654Z,101899.31
2022-11-14T16:46:06.281Z,101898.33
2022-11-14T16:48:51.569Z,101897.05
2022-11-14T16:51:52.257Z,101901.19
2022-11-14T16:54:37.768Z,101903.79
2022-11-14T16:57:24.294Z,101908.45
2022-11-14T17:00:12.498Z,101908.20
2022-11-14T17:02:57.919Z,101914.66
2022-11-14T17:05:52.738Z,101922.84
2022-11-14T17:08:38.554Z,101924.63
2022-11-14T17:11:25.260Z,101928.56
2022-11-14T17:14:11.717Z,101929.31
2022-11-14T17:17:04.559Z,101930.58
2022-11-14T17:19:50.444Z,101934.80
2022-11-14T17:22:36.390Z,101933.46
2022-11-14T17:25:23.021Z,101933.77
2022-11-14T17:28:09.215Z,101932.80
2022-11-14T17:30:55.508Z,101931.73
2022-11-14T17:33:41.062Z,101931.85
2022-11-14T17:36:29.319Z,101932.09
2022-11-14T17:39:15.610Z,101929.25
2022-11-14T17:42:01.383Z,101933.57
2022-11-14T17:44:46.967Z,101933.59
2022-11-14T17:47:33.058Z,101934.75
2022-11-14T17:50:18.711Z,101933.17
2022-11-14T17:53:04.516Z,101935.58
2022-11-14T17:55:57.768Z,101935.73
2022-11-14T17:58:43.645Z,101933.30
2022-11-14T18:01:31.702Z,101938.27
2022-11-14T18:04:17.969Z,101939.66
2022-11-14T18:07:03.730Z,101944.34
2022-11-14T18:09:49.731Z,101943.67
2022-11-14T18:12:35.386Z,101945.56
2022-11-14T18:15:26.583Z,101947.67
2022-11-14T18:18:13.622Z,101949.28
2022-11-14T18:21:06.014Z,101950.86
2022-11-14T18:23:57.850Z,101952.29
2022-11-14T18:26:43.523Z,101953.65
2022-11-14T18:29:31.076Z,101950.61
2022-11-14T18:32:16.669Z,101950.81
2022-11-14T18:35:02.187Z,101947.66
2022-11-14T18:37:48.063Z,101945.34
2022-11-14T18:40:34.362Z,101949.45
2022-11-14T18:43:20.239Z,101946.61
2022-11-14T18:46:15.267Z,101948.31
2022-11-14T18:49:01.181Z,101946.69
2022-11-14T18:51:46.558Z,101947.92
2022-11-14T18:54:32.417Z,101950.94
2022-11-14T18:57:17.667Z,101950.38
2022-11-14T19:00:04.577Z,101949.47
2022-11-14T19:02:51.441Z,101947.66
2022-11-14T19:05:37.190Z,101947.18
2022-11-14T19:08:22.812Z,101950.58
2022-11-14T19:11:30.141Z,101950.86
2022-11-14T19:14:16.502Z,101950.37
2022-11-14T19:17:03.031Z,101951.85
2022-11-14T19:19:50.395Z,101953.58
2022-11-14T19:22:36.202Z,101952.13
2022-11-14T19:25:21.868Z,101958.05
2022-11-14T19:28:07.582Z,101961.41
2022-11-14T19:30:53.290Z,101966.49
2022-11-14T19:33:43.049Z,101970.89
2022-11-14T19:36:57.723Z,101970.52
2022-11-14T19:39:34.157Z,101967.37
2022-11-14T19:42:19.776Z,101968.65
2022-11-14T19:45:05.747Z,101971.40
2022-11-14T19:47:51.029Z,101970.19
2022-11-14T19:50:36.414Z,101968.02
2022-11-14T19:53:21.985Z,101971.77
2022-11-14T19:56:10.722Z,101974.50
2022-11-14T19:58:57.429Z,101969.14
2022-11-14T20:01:43.408Z,101966.23
2022-11-14T20:04:29.035Z,101964.28
2022-11-14T20:07:14.717Z,101968.52
2022-11-14T20:10:00.456Z,101967.66
2022-11-14T20:12:46.234Z,101967.39
2022-11-14T20:15:31.748Z,101965.44
2022-11-14T20:18:19.232Z,101964.77
2022-11-14T20:21:06.031Z,101966.15
2022-11-14T20:23:53.356Z,101962.66
2022-11-14T20:26:39.589Z,101962.77
2022-11-14T20:29:25.319Z,101963.84
2022-11-14T20:32:15.635Z,101963.36
2022-11-14T20:35:06.279Z,101964.47
2022-11-14T20:37:51.837Z,101962.14
2022-11-14T20:40:39.357Z,101961.87
2022-11-14T20:43:33.704Z,101960.07
2022-11-14T20:46:24.618Z,101959.46
2022-11-14T20:49:11.503Z,101958.56
2022-11-14T20:51:57.488Z,101961.25
2022-11-14T20:54:44.541Z,101960.86
2022-11-14T20:57:32.047Z,101956.64
2022-11-14T21:00:18.742Z,101957.60
2022-11-14T21:03:05.010Z,101961.73
2022-11-14T21:05:51.031Z,101960.83
2022-11-14T21:08:41.051Z,101954.77
2022-11-14T21:11:26.764Z,101956.08
2022-11-14T21:14:12.845Z,101954.77
2022-11-14T21:16:58.791Z,101954.60
2022-11-14T21:19:44.377Z,101953.16
2022-11-14T21:22:30.496Z,101951.08
2022-11-14T21:25:17.544Z,101949.30
2022-11-14T21:28:04.594Z,101948.21
2022-11-14T21:30:50.509Z,101942.86
2022-11-14T21:33:36.737Z,101939.77
2022-11-14T21:36:43.837Z,101940.80
2022-11-14T21:39:28.861Z,101937.30
2022-11-14T21:42:18.240Z,101936.84
2022-11-14T21:45:06.854Z,101933.03
2022-11-14T21:47:52.599Z,101936.17
2022-11-14T21:50:41.715Z,101932.60
2022-11-14T21:53:28.665Z,101935.70
2022-11-14T21:56:23.040Z,101932.55
2022-11-14T21:59:15.863Z,101932.88
2022-11-14T22:02:20.956Z,101936.92
2022-11-14T22:05:06.993Z,101939.95
2022-11-14T22:07:56.804Z,101934.06
2022-11-14T22:10:42.599Z,101930.70
2022-11-14T22:13:31.092Z,101930.27
2022-11-14T22:16:23.260Z,101931.52
2022-11-14T22:19:08.904Z,101932.63
2022-11-14T22:21:54.945Z,101931.55
2022-11-14T22:24:43.267Z,101931.36
2022-11-14T22:27:31.587Z,101925.85
2022-11-14T22:30:17.358Z,101922.09
2022-11-14T22:33:06.034Z,101920.80
2022-11-14T22:35:54.001Z,101920.98
2022-11-14T22:38:40.753Z,101918.85
2022-11-14T22:41:33.603Z,101916.33
2022-11-14T22:44:19.458Z,101913.67
2022-11-14T22:47:05.498Z,101913.19
2022-11-14T22:49:57.460Z,101903.59
2022-11-14T22:52:43.901Z,101901.84
2022-11-14T22:55:30.111Z,101902.52
2022-11-14T22:58:16.540Z,101900.34
2022-11-14T23:01:09.687Z,101899.25
2022-11-14T23:03:58.372Z,101899.95
2022-11-14T23:06:44.775Z,101897.71
2022-11-14T23:09:30.578Z,101900.28
2022-11-14T23:12:16.588Z,101902.46
2022-11-14T23:15:02.686Z,101893.98
2022-11-14T23:17:51.228Z,101895.88
2022-11-14T23:20:37.369Z,101893.70
2022-11-14T23:23:25.321Z,101897.87
2022-11-14T23:26:17.617Z,101893.63
2022-11-14T23:29:04.041Z,101891.65
2022-11-14T23:31:50.811Z,101892.17
2022-11-14T23:34:36.405Z,101887.82
2022-11-14T23:37:22.206Z,101887.02
2022-11-14T23:40:11.449Z,101888.56
2022-11-14T23:42:58.590Z,101886.55
2022-11-14T23:45:47.390Z,101883.38
2022-11-14T23:48:36.002Z,101879.38
2022-11-14T23:51:24.136Z,101876.61
2022-11-14T23:54:13.034Z,101879.05
2022-11-14T23:57:04.444Z,101875.13
2022-11-14T23:59:54.017Z,101877.34
